createdAt,value
2022-10-26T00:01:06.599Z,19.60
2022-10-26T00:03:34.667Z,17.60
2022-10-26T00:06:10.200Z,18.50
2022-10-26T00:08:38.158Z,18.02
2022-10-26T00:11:05.795Z,19.98
2022-10-26T00:13:33.969Z,18.75
2022-10-26T00:16:01.552Z,20.13
2022-10-26T00:18:28.555Z,19.83
2022-10-26T00:20:55.502Z,19.25
2022-10-26T00:23:22.495Z,17.83
2022-10-26T00:25:57.027Z,19.60
2022-10-26T00:28:24.247Z,19.98
2022-10-26T00:30:51.515Z,19.23
2022-10-26T00:33:18.889Z,19.50
2022-10-26T00:35:53.370Z,15.88
2022-10-26T00:38:20.898Z,15.73
2022-10-26T00:40:48.425Z,18.90
2022-10-26T00:43:36.867Z,18.70
2022-10-26T00:46:08.927Z,18.40
2022-10-26T00:48:43.898Z,15.90
2022-10-26T00:51:14.996Z,17.60
2022-10-26T00:53:42.656Z,18.60
2022-10-26T00:56:09.998Z,19.13
2022-10-26T00:58:37.937Z,18.92
2022-10-26T01:01:05.036Z,19.70
2022-10-26T01:03:33.324Z,19.13
2022-10-26T01:06:00.553Z,17.80
2022-10-26T01:08:29.005Z,18.10
2022-10-26T01:10:58.613Z,17.38
2022-10-26T01:13:31.819Z,17.70
2022-10-26T01:16:17.028Z,19.15
2022-10-26T01:19:17.856Z,18.42
2022-10-26T01:22:03.332Z,13.15
2022-10-26T01:24:36.219Z,19.77
2022-10-26T01:27:30.226Z,15.80
2022-10-26T01:30:11.881Z,19.05
2022-10-26T01:32:57.537Z,15.45
2022-10-26T01:35:38.263Z,19.33
2022-10-26T01:38:18.258Z,17.35
2022-10-26T01:41:01.463Z,14.70
2022-10-26T01:43:34.411Z,19.35
2022-10-26T01:46:04.406Z,14.82
2022-10-26T01:48:33.413Z,20.17
2022-10-26T01:51:01.636Z,20.17
2022-10-26T01:53:29.345Z,20.10
2022-10-26T01:55:56.837Z,20.35
2022-10-26T01:58:50.215Z,19.73
2022-10-26T02:01:52.644Z,14.88
2022-10-26T02:04:59.817Z,19.60
2022-10-26T02:08:07.954Z,16.85
2022-10-26T02:11:02.570Z,16.85
2022-10-26T02:13:39.907Z,16.20
2022-10-26T02:16:29.825Z,21.08
2022-10-26T02:19:05.682Z,21.80
2022-10-26T02:21:40.502Z,21.48
2022-10-26T02:24:11.191Z,28.58
2022-10-26T02:29:10.725Z,22.67
2022-10-26T02:31:39.056Z,20.95
2022-10-26T02:34:10.158Z,14.70
2022-10-26T02:36:42.752Z,16.98
2022-10-26T02:39:11.511Z,19.88
2022-10-26T02:41:41.412Z,20.08
2022-10-26T02:44:23.015Z,18.90
2022-10-26T02:46:51.482Z,21.25
2022-10-26T02:49:19.445Z,23.58
2022-10-26T02:52:10.832Z,18.40
2022-10-26T02:55:17.189Z,18.58
2022-10-26T02:57:50.835Z,22.10
2022-10-26T03:00:19.434Z,22.00
2022-10-26T03:02:54.420Z,20.35
2022-10-26T03:05:25.623Z,22.95
2022-10-26T03:07:52.650Z,21.50
2022-10-26T03:10:20.258Z,21.08
2022-10-26T03:12:47.891Z,25.38
2022-10-26T03:15:16.046Z,24.95
2022-10-26T03:17:43.072Z,23.42
2022-10-26T03:20:12.246Z,22.05
2022-10-26T03:22:39.217Z,22.70
2022-10-26T03:28:04.682Z,25.30
2022-10-26T03:30:32.452Z,27.48
2022-10-26T03:32:59.425Z,24.23
2022-10-26T03:35:26.556Z,29.00
2022-10-26T03:37:53.557Z,29.30
2022-10-26T03:40:20.639Z,27.00
2022-10-26T03:42:47.959Z,24.17
2022-10-26T03:45:15.337Z,29.35
2022-10-26T03:47:46.841Z,26.13
2022-10-26T03:50:15.748Z,27.15
2022-10-26T03:52:43.157Z,27.63
2022-10-26T03:55:10.939Z,25.67
2022-10-26T03:57:44.675Z,27.30
2022-10-26T04:00:15.746Z,26.10
2022-10-26T04:02:49.094Z,23.50
2022-10-26T04:05:16.994Z,25.25
2022-10-26T04:07:44.416Z,24.50
2022-10-26T04:10:11.357Z,29.00
2022-10-26T04:12:38.857Z,28.73
2022-10-26T04:15:07.561Z,30.00
2022-10-26T04:17:34.826Z,30.13
2022-10-26T04:20:01.926Z,24.35
2022-10-26T04:22:29.107Z,27.67
2022-10-26T04:24:56.086Z,27.17
2022-10-26T04:27:23.170Z,28.52
2022-10-26T04:29:50.109Z,28.75
2022-10-26T04:32:17.049Z,28.48
2022-10-26T04:34:44.047Z,25.85
2022-10-26T04:37:11.372Z,25.33
2022-10-26T04:39:38.296Z,25.30
2022-10-26T04:42:05.283Z,27.73
2022-10-26T04:44:32.218Z,25.08
2022-10-26T04:46:59.151Z,28.23
2022-10-26T04:49:26.092Z,27.15
2022-10-26T04:51:53.051Z,26.45
2022-10-26T04:54:19.987Z,29.02
2022-10-26T04:59:14.170Z,27.98
2022-10-26T05:01:41.169Z,24.02
2022-10-26T05:04:08.239Z,27.48
2022-10-26T05:06:35.217Z,25.98
2022-10-26T05:09:02.547Z,28.27
2022-10-26T05:11:29.418Z,28.90
2022-10-26T05:13:56.331Z,27.80
2022-10-26T05:16:23.285Z,22.45
2022-10-26T05:18:50.302Z,25.88
2022-10-26T05:21:20.009Z,28.45
2022-10-26T05:23:54.123Z,24.33
2022-10-26T05:26:22.527Z,25.23
2022-10-26T05:28:50.170Z,26.77
2022-10-26T05:31:17.369Z,29.92
2022-10-26T05:33:44.269Z,27.92
2022-10-26T05:36:11.255Z,24.73
2022-10-26T05:38:38.228Z,28.60
2022-10-26T05:41:05.397Z,25.38
2022-10-26T05:43:32.341Z,29.88
2022-10-26T05:45:59.294Z,27.98
2022-10-26T05:48:26.169Z,30.90
2022-10-26T05:50:53.153Z,29.08
2022-10-26T05:53:20.293Z,26.83
2022-10-26T05:55:47.715Z,26.17
2022-10-26T05:58:16.033Z,24.83
2022-10-26T06:01:11.943Z,26.63
2022-10-26T06:03:53.127Z,26.75
2022-10-26T06:06:20.306Z,26.02
2022-10-26T06:08:47.483Z,24.80
2022-10-26T06:11:14.749Z,23.92
2022-10-26T06:13:41.937Z,22.80
2022-10-26T06:16:14.961Z,24.27
2022-10-26T06:19:12.583Z,23.90
2022-10-26T06:22:22.233Z,23.08
2022-10-26T06:25:07.965Z,21.75
2022-10-26T06:28:01.419Z,23.70
2022-10-26T06:30:28.495Z,25.23
2022-10-26T06:33:05.854Z,24.80
2022-10-26T06:35:41.579Z,24.80
2022-10-26T06:38:17.085Z,21.30
2022-10-26T06:40:46.839Z,23.65
2022-10-26T06:43:24.091Z,23.23
2022-10-26T06:46:01.096Z,22.83
2022-10-26T06:48:30.744Z,21.23
2022-10-26T06:50:57.818Z,22.63
2022-10-26T06:53:50.348Z,22.35
2022-10-26T06:56:17.900Z,21.67
2022-10-26T06:58:46.250Z,20.63
2022-10-26T07:01:13.569Z,20.35
2022-10-26T07:03:40.558Z,21.70
2022-10-26T07:06:07.673Z,19.85
2022-10-26T07:08:35.807Z,21.52
2022-10-26T07:11:02.931Z,20.65
2022-10-26T07:13:29.910Z,20.08
2022-10-26T07:15:56.863Z,19.92
2022-10-26T07:18:23.894Z,21.77
2022-10-26T07:20:50.829Z,19.92
2022-10-26T07:23:17.854Z,20.67
2022-10-26T07:25:44.786Z,21.48
2022-10-26T07:28:12.224Z,18.80
2022-10-26T07:30:40.329Z,20.60
2022-10-26T07:33:09.013Z,20.92
2022-10-26T07:35:36.733Z,19.13
2022-10-26T07:38:04.976Z,18.27
2022-10-26T07:40:32.486Z,17.13
2022-10-26T07:43:01.616Z,19.80
2022-10-26T07:45:30.055Z,18.25
2022-10-26T07:47:57.827Z,16.85
2022-10-26T07:50:25.298Z,16.63
2022-10-26T07:52:52.674Z,17.00
2022-10-26T07:55:20.512Z,19.17
2022-10-26T07:57:50.959Z,18.95
2022-10-26T08:00:21.754Z,18.92
2022-10-26T08:02:48.817Z,18.27
2022-10-26T08:05:15.895Z,16.80
2022-10-26T08:07:44.794Z,16.90
2022-10-26T08:10:13.349Z,16.88
2022-10-26T08:12:40.831Z,16.70
2022-10-26T08:15:08.516Z,16.55
2022-10-26T08:17:35.758Z,16.02
2022-10-26T08:20:02.914Z,16.25
2022-10-26T08:22:31.245Z,15.38
2022-10-26T08:24:58.515Z,15.00
2022-10-26T08:27:25.609Z,15.75
2022-10-26T08:29:52.658Z,16.65
2022-10-26T08:32:19.679Z,16.67
2022-10-26T08:34:47.095Z,16.75
2022-10-26T08:37:13.998Z,16.17
2022-10-26T08:39:40.901Z,16.65
2022-10-26T08:42:17.314Z,15.73
2022-10-26T08:44:48.815Z,15.52
2022-10-26T08:47:25.923Z,15.23
2022-10-26T08:50:00.694Z,16.05
2022-10-26T08:52:37.024Z,16.70
2022-10-26T08:55:06.611Z,16.02
2022-10-26T08:57:42.239Z,16.13
2022-10-26T09:00:17.774Z,13.85
2022-10-26T09:02:44.850Z,14.35
2022-10-26T09:05:18.399Z,13.82
2022-10-26T09:07:57.484Z,12.77
2022-10-26T09:10:42.806Z,13.65
2022-10-26T09:13:24.197Z,13.10
2022-10-26T09:16:05.925Z,13.73
2022-10-26T09:19:05.214Z,13.88
2022-10-26T09:21:48.580Z,14.48
2022-10-26T09:24:27.162Z,14.35
2022-10-26T09:27:18.456Z,13.98
2022-10-26T09:29:45.853Z,13.63
2022-10-26T09:32:25.810Z,12.25
2022-10-26T09:35:02.225Z,11.20
2022-10-26T09:37:35.839Z,10.50
2022-10-26T09:40:18.605Z,12.25
2022-10-26T09:42:51.765Z,13.60
2022-10-26T09:45:27.849Z,13.50
2022-10-26T09:48:00.817Z,14.05
2022-10-26T09:50:34.683Z,12.57
2022-10-26T09:53:02.096Z,12.77
2022-10-26T09:55:31.559Z,13.88
2022-10-26T09:58:03.054Z,13.00
2022-10-26T10:00:31.101Z,12.38
2022-10-26T10:02:59.331Z,13.60
2022-10-26T10:05:52.818Z,12.02
2022-10-26T10:08:25.923Z,13.60
2022-10-26T10:11:00.809Z,13.70
2022-10-26T10:13:33.578Z,11.70
2022-10-26T10:16:03.702Z,11.65
2022-10-26T10:18:30.902Z,11.32
2022-10-26T10:20:59.872Z,11.00
2022-10-26T10:23:36.031Z,10.57
2022-10-26T10:26:12.906Z,10.38
2022-10-26T10:28:42.798Z,10.13
2022-10-26T10:31:22.198Z,8.30
2022-10-26T10:33:49.752Z,8.30
2022-10-26T10:36:21.949Z,8.10
2022-10-26T10:38:51.305Z,8.73
2022-10-26T10:41:37.073Z,8.38
2022-10-26T10:44:13.877Z,8.52
2022-10-26T10:46:41.011Z,8.38
2022-10-26T10:49:21.369Z,8.38
2022-10-26T10:51:49.719Z,8.70
2022-10-26T10:54:34.315Z,8.68
2022-10-26T10:57:18.513Z,8.23
2022-10-26T11:00:11.685Z,7.78
2022-10-26T11:03:03.033Z,8.77
2022-10-26T11:06:04.997Z,8.65
2022-10-26T11:08:41.119Z,8.43
2022-10-26T11:11:40.577Z,8.57
2022-10-26T11:14:28.903Z,8.45
2022-10-26T11:17:15.141Z,8.57
2022-10-26T11:20:12.493Z,8.25
2022-10-26T11:22:59.687Z,8.35
2022-10-26T11:25:33.743Z,7.70
2022-10-26T11:28:13.532Z,7.68
2022-10-26T11:30:48.509Z,7.82
2022-10-26T11:33:28.099Z,7.85
2022-10-26T11:36:04.599Z,7.20
2022-10-26T11:38:56.035Z,7.72
2022-10-26T11:41:34.169Z,7.18
2022-10-26T11:44:19.853Z,7.45
2022-10-26T11:46:57.609Z,8.20
2022-10-26T11:49:39.705Z,6.38
2022-10-26T11:52:23.189Z,7.32
2022-10-26T11:54:55.740Z,7.65
2022-10-26T11:57:24.691Z,7.65
2022-10-26T12:00:04.377Z,7.47
2022-10-26T12:02:37.891Z,7.20
2022-10-26T12:05:25.941Z,7.15
2022-10-26T12:08:00.971Z,7.30
2022-10-26T12:10:32.786Z,7.28
2022-10-26T12:13:31.909Z,7.85
2022-10-26T12:16:07.942Z,7.07
2022-10-26T12:19:01.060Z,6.68
2022-10-26T12:21:30.572Z,7.00
2022-10-26T12:24:02.771Z,7.30
2022-10-26T12:26:29.665Z,6.45
2022-10-26T12:29:02.647Z,5.88
2022-10-26T12:31:32.828Z,6.13
2022-10-26T12:36:52.298Z,6.68
2022-10-26T12:39:39.955Z,5.93
2022-10-26T12:42:06.843Z,6.88
2022-10-26T12:44:45.978Z,6.10
2022-10-26T12:47:28.340Z,6.00
2022-10-26T12:50:18.952Z,6.85
2022-10-26T12:52:54.181Z,5.65
2022-10-26T12:55:40.166Z,5.60
2022-10-26T12:58:19.065Z,5.65
2022-10-26T13:01:00.053Z,5.78
2022-10-26T13:03:51.789Z,5.80
2022-10-26T13:06:47.684Z,6.25
2022-10-26T13:09:20.594Z,6.47
2022-10-26T13:11:55.343Z,6.72
2022-10-26T13:14:24.040Z,6.82
2022-10-26T13:16:51.226Z,6.53
2022-10-26T13:19:49.291Z,7.10
2022-10-26T13:22:20.517Z,7.40
2022-10-26T13:24:51.757Z,8.20
2022-10-26T13:27:18.789Z,7.70
2022-10-26T13:30:19.198Z,9.20
2022-10-26T13:32:54.206Z,8.90
2022-10-26T13:35:24.128Z,8.05
2022-10-26T13:37:55.039Z,10.80
2022-10-26T13:40:25.780Z,9.15
2022-10-26T13:45:25.230Z,7.63
2022-10-26T13:48:06.907Z,21.83
2022-10-26T13:50:48.374Z,9.40
2022-10-26T13:53:41.121Z,9.82
2022-10-26T13:56:37.408Z,12.52
2022-10-26T13:59:10.089Z,12.48
2022-10-26T14:01:37.728Z,10.23
2022-10-26T14:04:28.346Z,11.52
2022-10-26T14:06:55.748Z,15.40
2022-10-26T14:09:23.605Z,11.75
2022-10-26T14:11:52.615Z,12.60
2022-10-26T14:14:35.603Z,17.05
2022-10-26T14:17:03.381Z,13.90
2022-10-26T14:19:31.514Z,15.70
2022-10-26T14:21:59.307Z,12.45
2022-10-26T14:24:46.208Z,17.55
2022-10-26T14:27:24.479Z,19.60
2022-10-26T14:30:20.585Z,16.67
2022-10-26T14:32:40.527Z,17.02
2022-10-26T14:35:13.123Z,14.75
2022-10-26T14:37:49.614Z,24.67
2022-10-26T14:40:23.063Z,11.27
2022-10-26T14:42:54.790Z,12.77
2022-10-26T14:45:55.109Z,13.93
2022-10-26T14:48:35.167Z,17.10
2022-10-26T14:51:07.113Z,14.90
2022-10-26T14:53:38.334Z,14.90
2022-10-26T14:56:17.143Z,16.40
2022-10-26T14:58:44.818Z,19.67
2022-10-26T15:01:24.071Z,20.10
2022-10-26T15:04:03.009Z,20.90
2022-10-26T15:06:32.459Z,22.25
2022-10-26T15:09:01.910Z,21.02
2022-10-26T15:11:30.134Z,20.00
2022-10-26T15:13:58.571Z,18.30
2022-10-26T15:16:28.850Z,22.88
2022-10-26T15:19:00.263Z,20.95
2022-10-26T15:21:45.477Z,20.70
2022-10-26T15:24:38.646Z,22.15
2022-10-26T15:27:13.606Z,28.40
2022-10-26T15:29:46.485Z,27.70
2022-10-26T15:32:19.418Z,27.35
2022-10-26T15:35:05.860Z,36.38
2022-10-26T15:37:32.900Z,42.90
2022-10-26T15:40:00.347Z,35.53
2022-10-26T15:42:27.965Z,39.38
2022-10-26T15:44:55.150Z,40.92
2022-10-26T15:47:22.247Z,31.63
2022-10-26T15:49:49.167Z,32.58
2022-10-26T15:52:16.146Z,32.45
2022-10-26T15:54:43.099Z,34.33
2022-10-26T15:57:16.531Z,26.98
2022-10-26T15:59:46.006Z,28.17
2022-10-26T16:02:17.011Z,30.52
2022-10-26T16:04:44.150Z,41.25
2022-10-26T16:07:16.406Z,46.80
2022-10-26T16:09:44.642Z,51.20
2022-10-26T16:12:12.751Z,61.08
2022-10-26T16:15:04.362Z,44.15
2022-10-26T16:17:27.306Z,55.25
2022-10-26T16:19:54.230Z,56.63
2022-10-26T16:22:21.268Z,60.72
2022-10-26T16:24:48.166Z,58.95
2022-10-26T16:27:15.108Z,62.28
2022-10-26T16:29:42.071Z,66.38
2022-10-26T16:32:09.059Z,62.17
2022-10-26T16:34:35.991Z,61.70
2022-10-26T16:37:02.950Z,70.97
2022-10-26T16:39:29.873Z,60.17
2022-10-26T16:41:57.052Z,63.67
2022-10-26T16:44:23.954Z,51.95
2022-10-26T16:46:50.900Z,47.22
2022-10-26T16:49:18.484Z,53.13
2022-10-26T16:51:45.559Z,52.00
2022-10-26T16:54:12.507Z,50.28
2022-10-26T16:56:39.471Z,49.53
2022-10-26T16:59:06.412Z,54.17
2022-10-26T17:01:33.972Z,56.20
2022-10-26T17:04:01.256Z,45.97
2022-10-26T17:06:31.370Z,50.80
2022-10-26T17:08:58.551Z,50.20
2022-10-26T17:11:25.540Z,52.63
2022-10-26T17:13:55.986Z,58.28
2022-10-26T17:16:24.754Z,53.80
2022-10-26T17:18:52.935Z,56.63
2022-10-26T17:21:27.875Z,52.00
2022-10-26T17:23:54.882Z,62.58
2022-10-26T17:26:22.331Z,61.28
2022-10-26T17:28:53.591Z,79.25
2022-10-26T17:31:20.711Z,78.68
2022-10-26T17:33:51.425Z,83.78
2022-10-26T17:38:50.865Z,85.80
2022-10-26T17:41:19.486Z,84.35
2022-10-26T17:43:48.019Z,84.95
2022-10-26T17:46:17.983Z,92.18
2022-10-26T17:48:45.246Z,79.53
2022-10-26T17:51:17.714Z,83.85
2022-10-26T17:53:48.008Z,88.10
2022-10-26T17:56:26.346Z,86.80
2022-10-26T17:58:58.725Z,88.28
2022-10-26T18:01:26.487Z,84.38
2022-10-26T18:03:54.141Z,106.88
2022-10-26T18:06:24.928Z,94.85
2022-10-26T18:11:26.898Z,104.30
2022-10-26T18:13:58.054Z,111.68
2022-10-26T18:16:26.963Z,119.88
2022-10-26T18:19:01.506Z,117.70
2022-10-26T18:21:30.801Z,120.70
2022-10-26T18:23:57.777Z,122.03
2022-10-26T18:26:28.872Z,116.53
2022-10-26T18:28:57.779Z,124.20
2022-10-26T18:31:26.259Z,125.15
2022-10-26T18:34:00.658Z,135.20
2022-10-26T18:36:28.589Z,141.10
2022-10-26T18:38:55.952Z,144.25
2022-10-26T18:41:23.966Z,141.73
2022-10-26T18:43:52.871Z,125.78
2022-10-26T18:46:24.111Z,134.77
2022-10-26T18:48:58.823Z,121.32
2022-10-26T18:51:30.866Z,131.73
2022-10-26T18:53:58.976Z,137.20
2022-10-26T18:56:27.522Z,149.13
2022-10-26T18:58:58.803Z,148.52
2022-10-26T19:01:27.864Z,129.20
2022-10-26T19:03:59.643Z,137.07
2022-10-26T19:06:29.559Z,140.35
2022-10-26T19:08:57.111Z,146.83
2022-10-26T19:11:29.696Z,144.82
2022-10-26T19:13:57.337Z,130.00
2022-10-26T19:16:44.695Z,141.45
2022-10-26T19:19:12.746Z,137.60
2022-10-26T19:21:39.759Z,135.63
2022-10-26T19:24:12.438Z,139.07
2022-10-26T19:26:43.215Z,123.97
2022-10-26T19:29:15.686Z,128.52
2022-10-26T19:31:44.258Z,119.60
2022-10-26T19:34:13.038Z,115.05
2022-10-26T19:36:45.393Z,115.93
2022-10-26T19:39:14.708Z,110.28
2022-10-26T19:41:41.975Z,115.10
2022-10-26T19:44:11.092Z,115.10
2022-10-26T19:46:38.454Z,111.63
2022-10-26T19:49:05.687Z,109.47
2022-10-26T19:51:33.055Z,105.57
2022-10-26T19:54:04.067Z,102.68
2022-10-26T19:56:34.100Z,97.53
2022-10-26T19:59:01.889Z,95.45
2022-10-26T20:01:29.148Z,114.22
2022-10-26T20:03:56.313Z,104.95
2022-10-26T20:06:23.498Z,109.07
2022-10-26T20:08:50.915Z,99.53
2022-10-26T20:11:19.266Z,126.22
2022-10-26T20:13:47.687Z,123.95
2022-10-26T20:16:16.695Z,96.60
2022-10-26T20:18:47.668Z,120.32
2022-10-26T20:21:16.337Z,114.03
2022-10-26T20:23:44.333Z,117.20
2022-10-26T20:26:18.758Z,111.93
2022-10-26T20:28:48.954Z,106.93
2022-10-26T20:31:16.467Z,96.97
2022-10-26T20:33:43.482Z,114.93
2022-10-26T20:36:10.690Z,136.70
2022-10-26T20:38:39.896Z,119.65
2022-10-26T20:41:11.308Z,124.93
2022-10-26T20:43:40.454Z,115.75
2022-10-26T20:46:11.805Z,116.45
2022-10-26T20:48:39.201Z,99.97
2022-10-26T20:54:03.986Z,106.28
2022-10-26T20:56:33.584Z,107.93
2022-10-26T20:59:03.808Z,111.03
2022-10-26T21:01:35.113Z,118.82
2022-10-26T21:04:04.649Z,105.85
2022-10-26T21:06:40.297Z,110.63
2022-10-26T21:09:08.421Z,129.18
2022-10-26T21:11:35.760Z,108.15
2022-10-26T21:14:03.680Z,132.30
2022-10-26T21:16:30.684Z,128.70
2022-10-26T21:18:59.042Z,119.00
2022-10-26T21:21:26.539Z,121.78
2022-10-26T21:23:53.489Z,122.07
2022-10-26T21:26:20.451Z,131.93
2022-10-26T21:28:47.368Z,114.05
2022-10-26T21:31:16.659Z,117.88
2022-10-26T21:33:44.445Z,102.18
2022-10-26T21:36:12.815Z,128.35
2022-10-26T21:38:40.978Z,128.25
2022-10-26T21:41:17.657Z,132.65
2022-10-26T21:43:46.890Z,129.07
2022-10-26T21:46:14.313Z,114.18
2022-10-26T21:48:41.770Z,110.38
2022-10-26T21:51:12.963Z,115.90
2022-10-26T21:53:40.840Z,112.75
2022-10-26T21:56:11.999Z,142.10
2022-10-26T21:58:39.988Z,104.07
2022-10-26T22:01:11.632Z,95.40
2022-10-26T22:03:39.391Z,91.60
2022-10-26T22:06:08.130Z,91.05
2022-10-26T22:08:38.703Z,92.30
2022-10-26T22:11:08.660Z,96.65
2022-10-26T22:13:37.994Z,84.18
2022-10-26T22:16:13.796Z,86.82
2022-10-26T22:18:43.494Z,68.72
2022-10-26T22:21:11.808Z,70.22
2022-10-26T22:23:41.283Z,65.18
2022-10-26T22:26:15.012Z,89.38
2022-10-26T22:28:43.888Z,99.70
2022-10-26T22:31:15.689Z,111.30
2022-10-26T22:33:43.272Z,106.72
2022-10-26T22:36:15.814Z,80.93
2022-10-26T22:38:43.453Z,61.78
2022-10-26T22:41:11.682Z,78.13
2022-10-26T22:43:39.256Z,69.97
2022-10-26T22:46:08.712Z,65.15
2022-10-26T22:48:36.336Z,66.47
2022-10-26T22:51:10.518Z,79.55
2022-10-26T22:53:38.055Z,76.88
2022-10-26T22:56:06.982Z,54.78
2022-10-26T22:58:35.108Z,70.80
2022-10-26T23:01:06.403Z,70.03
2022-10-26T23:03:37.440Z,58.38
2022-10-26T23:08:34.105Z,59.10
2022-10-26T23:11:02.696Z,59.35
2022-10-26T23:13:29.980Z,59.47
2022-10-26T23:15:57.422Z,57.15
2022-10-26T23:18:25.431Z,60.28
2022-10-26T23:20:52.581Z,73.90
2022-10-26T23:23:19.583Z,78.28
2022-10-26T23:25:46.642Z,98.10
2022-10-26T23:28:16.519Z,82.28
2022-10-26T23:30:47.308Z,56.10
2022-10-26T23:35:42.186Z,50.95
2022-10-26T23:38:09.130Z,56.95
2022-10-26T23:40:36.574Z,65.72
2022-10-26T23:43:03.506Z,60.90
2022-10-26T23:45:30.447Z,96.65
2022-10-26T23:47:57.397Z,64.28
2022-10-26T23:50:24.359Z,85.75
2022-10-26T23:52:51.425Z,41.08
2022-10-26T23:55:18.391Z,45.38
2022-10-26T23:57:45.337Z,64.07
